Flight Track Log - Related Links

Times and Time Zones

All times are in EDT time to prevent confusion due to time zone crossing. See the DKT1592 flight status page for this flight to view local times or setup timezone preferences in your user account.

Time Position Orientation Groundspeed Altitude Reporting Facility
EDT Latitude Longitude Course Direction KTS MPH feet Rate Location/Type
07:57AM 43.6108 -96.7667 326° Northwest 162 186 2,500  Level Minneapolis Center
07:58AM 43.6581 -96.8108 326° Northwest 165 190 4,200 1,230 Climbing Minneapolis Center
07:59AM 43.7036 -96.8494 329° Northwest 176 203 5,000 1,033 Climbing Minneapolis Center
08:00AM 43.7531 -96.8936 327° Northwest 192 221 6,300 1,279 Climbing Minneapolis Center
08:01AM 43.8014 -96.9344 329° Northwest 200 230 7,600 1,171 Climbing Minneapolis Center
08:02AM 43.8467 -96.9753 327° Northwest 200 230 8,700 927 Climbing Minneapolis Center
08:03AM 43.8903 -97.0164 326° Northwest 197 227 9,500 836 Climbing Minneapolis Center
08:04AM 43.9358 -97.0592 326° Northwest 196 226 10,400 787 Climbing Minneapolis Center
08:05AM 43.9822 -97.1011 327° Northwest 196 226 11,100 639 Climbing Minneapolis Center
08:06AM 44.0281 -97.1472 324° Northwest 199 229 11,700 639 Climbing Minneapolis Center
08:07AM 44.0758 -97.1914 326° Northwest 203 234 12,400 780 Climbing Minneapolis Center
08:08AM 44.1231 -97.2350 326° Northwest 203 234 13,300 732 Climbing Minneapolis Center
08:09AM 44.1686 -97.2781 326° Northwest 203 234 13,900 639 Climbing Minneapolis Center
08:10AM 44.2242 -97.3292 327° Northwest 203 234 14,600 639 Climbing Minneapolis Center
08:11AM 44.2714 -97.3739 326° Northwest 203 234 15,200 488 Climbing Minneapolis Center
08:12AM 44.3208 -97.4158 329° Northwest 203 234 15,600 390 Climbing Minneapolis Center
08:13AM 44.3692 -97.4608 326° Northwest 204 235 16,000 197 Climbing Minneapolis Center
08:14AM 44.4181 -97.5064 326° Northwest 207 238 16,000  Level Minneapolis Center
08:15AM 44.4694 -97.5511 328° Northwest 212 244 16,000  Level Minneapolis Center
08:16AM 44.5200 -97.5972 327° Northwest 214 246 16,000  Level Minneapolis Center
08:17AM 44.5708 -97.6461 326° Northwest 216 249 16,000  Level Minneapolis Center
08:18AM 44.6219 -97.6925 327° Northwest 217 250 16,000  Level Minneapolis Center
08:19AM 44.6736 -97.7411 326° Northwest 218 251 16,000  Level Minneapolis Center
08:20AM 44.7367 -97.7983 327° Northwest 221 254 16,000  Level Minneapolis Center
08:21AM 44.7886 -97.8483 326° Northwest 222 255 16,000  Level Minneapolis Center
08:22AM 44.8403 -97.8958 327° Northwest 222 255 16,000  Level Minneapolis Center
08:23AM 44.8936 -97.9447 327° Northwest 223 257 16,000  Level Minneapolis Center
08:24AM 44.9458 -97.9939 326° Northwest 224 258 16,000  Level Minneapolis Center
08:25AM 44.9972 -98.0444 325° Northwest 224 258 16,000  Level Minneapolis Center
08:26AM 45.0553 -98.0994 326° Northwest 225 259 16,000  Level Minneapolis Center
08:27AM 45.1069 -98.1481 326° Northwest 225 259 16,000  Level Minneapolis Center
08:29AM 45.1617 -98.1961 328° Northwest 226 260 16,000  Level Minneapolis Center
08:30AM 45.2156 -98.2456 327° Northwest 229 264 16,000  Level Minneapolis Center
08:31AM 45.2692 -98.2939 328° Northwest 229 264 16,000  Level Minneapolis Center
08:32AM 45.3222 -98.3417 328° Northwest 229 264 16,000  Level Minneapolis Center
08:33AM 45.3858 -98.4006 327° Northwest 229 264 16,000  Level Minneapolis Center
08:34AM 45.4392 -98.4503 327° Northwest 229 264 16,000  Level Minneapolis Center
08:35AM 45.4925 -98.4997 327° Northwest 229 264 16,000  Level Minneapolis Center
08:36AM 45.5450 -98.5506 326° Northwest 229 264 16,000  Level Minneapolis Center
08:37AM 45.5992 -98.6025 326° Northwest 230 265 16,000  Level Minneapolis Center
08:38AM 45.6531 -98.6558 325° Northwest 234 269 16,000  Level Minneapolis Center
08:39AM 45.7047 -98.7042 327° Northwest 229 264 16,000 49 Level Minneapolis Center
08:40AM 45.7683 -98.7628 327° Northwest 228 262 16,100 49 Climbing Minneapolis Center
08:41AM 45.8228 -98.8117 328° Northwest 228 262 16,100  Level Minneapolis Center
08:42AM 45.8758 -98.8592 328° Northwest 228 262 16,100 -49 Level Minneapolis Center
08:43AM 45.9300 -98.9069 328° Northwest 228 262 16,000 -49 Descending Minneapolis Center
08:44AM 45.9836 -98.9564 327° Northwest 228 262 16,000  Level Minneapolis Center
08:45AM 46.0364 -99.0042 328° Northwest 228 262 16,000 -49 Level Minneapolis Center
08:46AM 46.0906 -99.0542 327° Northwest 227 261 15,900 -49 Descending Minneapolis Center
08:47AM 46.1419 -99.1044 326° Northwest 227 261 15,900  Level Minneapolis Center
08:48AM 46.1936 -99.1547 326° Northwest 226 260 15,900  Level Minneapolis Center
08:49AM 46.2456 -99.2064 325° Northwest 226 260 15,900 49 Level Minneapolis Center
08:50AM 46.2992 -99.2533 329° Northwest 226 260 16,000  Climbing Minneapolis Center
08:51AM 46.3589 -99.3092 327° Northwest 225 259 15,900 -49 Descending Minneapolis Center
08:52AM 46.4094 -99.3600 325° Northwest 225 259 15,900  Level Minneapolis Center
08:53AM 46.4619 -99.4078 328° Northwest 225 259 15,900  Level Minneapolis Center
08:54AM 46.5128 -99.4572 326° Northwest 224 258 15,900  Level Minneapolis Center
08:55AM 46.5650 -99.5061 327° Northwest 224 258 15,900  Level Minneapolis Center
08:56AM 46.6197 -99.5572 327° Northwest 224 258 15,900  Level Minneapolis Center
08:57AM 46.6717 -99.6061 327° Northwest 224 258 15,900  Level Minneapolis Center
08:58AM 46.7242 -99.6553 327° Northwest 224 258 15,900  Level Minneapolis Center
08:59AM 46.7753 -99.7053 326° Northwest 224 258 15,900 49 Level Minneapolis Center
09:00AM 46.8356 -99.7683 324° Northwest 223 257 16,000 98 Climbing Minneapolis Center
09:01AM 46.8850 -99.8192 325° Northwest 222 255 16,100  Climbing Minneapolis Center
09:02AM 46.9356 -99.8694 326° Northwest 222 255 16,000 -49 Descending Minneapolis Center
09:03AM 46.9861 -99.9208 325° Northwest 222 255 16,000  Level Minneapolis Center
09:04AM 47.0367 -99.9714 326° Northwest 221 254 16,000  Level Minneapolis Center
09:05AM 47.0872 -100.0228 325° Northwest 221 254 16,000  Level Minneapolis Center
09:06AM 47.1386 -100.0706 328° Northwest 221 254 16,000 49 Level Minneapolis Center
09:07AM 47.1911 -100.1225 326° Northwest 222 255 16,100 49 Climbing Minneapolis Center
09:08AM 47.2417 -100.1731 326° Northwest 222 255 16,100  Level Minneapolis Center
09:09AM 47.3017 -100.2350 325° Northwest 222 255 16,100 -49 Level Minneapolis Center
09:11AM 47.3525 -100.2872 325° Northwest 222 255 16,000  Descending Minneapolis Center
09:12AM 47.4039 -100.3378 326° Northwest 222 255 16,100  Climbing Minneapolis Center
09:13AM 47.4550 -100.3894 326° Northwest 222 255 16,000  Descending Minneapolis Center
09:14AM 47.5067 -100.4392 327° Northwest 222 255 16,100  Climbing Minneapolis Center
09:15AM 47.5586 -100.4925 325° Northwest 222 255 16,000 -98 Descending Minneapolis Center
09:16AM 47.6097 -100.5492 323° Northwest 227 261 15,900 -49 Descending Minneapolis Center
09:17AM 47.6614 -100.6042 324° Northwest 231 266 15,900 -98 Level Minneapolis Center
09:18AM 47.7239 -100.6631 328° Northwest 228 262 15,700 -732 Descending Minneapolis Center
09:19AM 47.7786 -100.7169 327° Northwest 229 264 14,400 -1,561 Descending Minneapolis Center
09:20AM 47.8408 -100.7736 329° Northwest 245 282 12,500 -1,756 Descending Minneapolis Center
09:21AM 47.9019 -100.8386 325° Northwest 264 304 10,800 -1,610 Descending Minneapolis Center
09:22AM 47.9594 -100.8983 325° Northwest 264 304 9,200 -1,548 Descending Minneapolis Center
09:24AM 48.0272 -101.0317 322° Northwest  Level FlightAware Approximate
09:31AM 48.2500 -101.2667 90° East  Level FlightAware Approximate
09:32AM 48.2576 -101.2780 90° East  Level Estimated
09:33AM 48.2576 -101.2780 90° East  Level Estimated
09:34AM 48.2576 -101.2780 90° East  Level Estimated
09:35AM 48.2576 -101.2780 90° East  Level Estimated
09:36AM 48.2576 -101.2780 90° East  Level Estimated

Login

Don't have an account? Register now (free) for customized features, flight alerts, and more!